createdAt,value
2022-12-24T00:01:17.077Z,2.26
2022-12-24T00:03:48.699Z,2.25
2022-12-24T00:06:25.122Z,1.94
2022-12-24T00:08:54.804Z,1.95
2022-12-24T00:11:42.106Z,2.34
2022-12-24T00:14:24.585Z,2.20
2022-12-24T00:17:11.808Z,2.33
2022-12-24T00:19:43.164Z,2.25
2022-12-24T00:25:14.034Z,2.08
2022-12-24T00:28:04.608Z,1.83
2022-12-24T00:30:33.917Z,2.26
2022-12-24T00:33:20.800Z,2.25
2022-12-24T00:36:08.526Z,2.29
2022-12-24T00:38:50.663Z,2.33
2022-12-24T00:41:35.277Z,2.35
2022-12-24T00:44:09.749Z,2.29
2022-12-24T00:46:41.020Z,2.22
2022-12-24T00:49:15.906Z,2.30
2022-12-24T00:51:47.635Z,2.32
2022-12-24T00:54:21.975Z,2.26
2022-12-24T00:56:51.170Z,2.20
2022-12-24T00:59:33.238Z,2.29
2022-12-24T01:02:03.148Z,2.26
2022-12-24T01:04:50.307Z,2.22
2022-12-24T01:07:21.514Z,2.24
2022-12-24T01:09:56.084Z,2.24
2022-12-24T01:12:38.231Z,2.22
2022-12-24T01:15:14.121Z,2.24
2022-12-24T01:17:48.377Z,2.19
2022-12-24T01:20:18.984Z,2.13
2022-12-24T01:22:50.426Z,2.16
2022-12-24T01:25:26.233Z,2.15
2022-12-24T01:27:55.306Z,1.90
2022-12-24T01:30:37.657Z,2.09
2022-12-24T01:33:17.759Z,2.15
2022-12-24T01:38:37.236Z,2.16
2022-12-24T01:44:37.458Z,2.19
2022-12-24T01:47:32.773Z,2.13
2022-12-24T01:50:24.236Z,2.12
2022-12-24T01:52:53.409Z,2.07
2022-12-24T01:55:37.491Z,2.12
2022-12-24T01:58:09.603Z,1.90
2022-12-24T02:00:38.735Z,2.19
2022-12-24T02:03:21.473Z,2.18
2022-12-24T02:05:52.513Z,2.09
2022-12-24T02:08:22.217Z,2.15
2022-12-24T02:10:59.707Z,2.16
2022-12-24T02:13:29.039Z,2.16
2022-12-24T02:16:08.244Z,2.16
2022-12-24T02:18:45.905Z,1.91
2022-12-24T02:21:42.113Z,2.17
2022-12-24T02:24:45.706Z,2.21
2022-12-24T02:27:44.655Z,2.14
2022-12-24T02:30:33.034Z,2.21
2022-12-24T02:33:16.525Z,2.22
2022-12-24T02:36:10.014Z,2.19
2022-12-24T02:38:44.661Z,2.22
2022-12-24T02:41:24.909Z,2.25
2022-12-24T02:44:02.593Z,2.23
2022-12-24T02:46:43.889Z,2.20
2022-12-24T02:49:13.762Z,2.20
2022-12-24T02:51:43.014Z,2.17
2022-12-24T02:54:19.007Z,2.22
2022-12-24T02:57:18.795Z,2.24
2022-12-24T03:00:03.525Z,2.24
2022-12-24T03:02:56.152Z,2.15
2022-12-24T03:05:53.124Z,2.21
2022-12-24T03:08:45.453Z,2.21
2022-12-24T03:11:20.537Z,2.17
2022-12-24T03:13:54.245Z,2.22
2022-12-24T03:16:29.206Z,2.25
2022-12-24T03:19:01.815Z,2.11
2022-12-24T03:24:30.198Z,2.18
2022-12-24T03:27:01.371Z,2.17
2022-12-24T03:32:25.852Z,2.16
2022-12-24T03:35:02.842Z,2.10
2022-12-24T03:37:32.310Z,1.89
2022-12-24T03:40:16.262Z,2.10
2022-12-24T03:42:45.509Z,2.14
2022-12-24T03:45:14.597Z,2.04
2022-12-24T03:47:53.692Z,2.17
2022-12-24T03:50:38.014Z,2.08
2022-12-24T03:56:13.834Z,2.10
2022-12-24T03:58:44.330Z,2.16
2022-12-24T04:01:13.502Z,2.14
2022-12-24T04:03:42.768Z,2.13
2022-12-24T04:06:32.375Z,2.12
2022-12-24T04:09:20.738Z,2.16
2022-12-24T04:11:49.929Z,2.14
2022-12-24T04:14:19.126Z,2.15
2022-12-24T04:19:54.275Z,2.12
2022-12-24T04:22:25.869Z,2.13
2022-12-24T04:24:54.992Z,2.14
2022-12-24T04:27:37.079Z,2.15
2022-12-24T04:30:20.607Z,2.14
2022-12-24T04:32:51.912Z,1.97
2022-12-24T04:35:39.037Z,2.08
2022-12-24T04:38:23.713Z,1.78
2022-12-24T04:41:05.444Z,2.12
2022-12-24T04:43:35.217Z,2.03
2022-12-24T04:46:09.322Z,2.03
2022-12-24T04:48:51.642Z,2.02
2022-12-24T04:51:21.499Z,1.94
2022-12-24T04:53:52.610Z,2.00
2022-12-24T04:56:37.193Z,2.02
2022-12-24T04:59:06.354Z,2.02
2022-12-24T05:01:48.844Z,1.98
2022-12-24T05:06:53.436Z,2.07
2022-12-24T05:09:24.440Z,2.03
2022-12-24T05:11:54.156Z,2.01
2022-12-24T05:14:23.687Z,1.99
2022-12-24T05:17:10.841Z,2.00
2022-12-24T05:19:40.040Z,1.99
2022-12-24T05:25:12.269Z,1.85
2022-12-24T05:30:43.343Z,1.90
2022-12-24T05:33:25.088Z,2.12
2022-12-24T05:36:07.176Z,2.04
2022-12-24T05:38:35.961Z,2.09
2022-12-24T05:41:09.012Z,1.85
2022-12-24T05:43:51.737Z,1.88
2022-12-24T05:46:23.359Z,1.89
2022-12-24T05:48:54.120Z,1.86
2022-12-24T05:51:24.998Z,1.77
2022-12-24T05:53:56.311Z,1.85
2022-12-24T05:56:27.909Z,1.92
2022-12-24T05:59:10.081Z,1.99
2022-12-24T06:01:52.125Z,2.14
2022-12-24T06:04:40.937Z,2.12
2022-12-24T06:07:10.219Z,2.00
2022-12-24T06:09:52.207Z,2.07
2022-12-24T06:12:36.359Z,2.06
2022-12-24T06:15:23.636Z,2.03
2022-12-24T06:17:53.452Z,2.14
2022-12-24T06:20:37.321Z,2.01
2022-12-24T06:23:08.769Z,2.08
2022-12-24T06:25:42.901Z,2.07
2022-12-24T06:28:26.925Z,2.17
2022-12-24T06:31:02.351Z,2.08
2022-12-24T06:33:37.765Z,2.02
2022-12-24T06:36:38.274Z,2.13
2022-12-24T06:39:20.494Z,2.19
2022-12-24T06:41:49.699Z,2.23
2022-12-24T06:44:20.776Z,2.22
2022-12-24T06:47:07.956Z,2.21
2022-12-24T06:49:50.114Z,2.09
2022-12-24T06:52:37.571Z,2.09
2022-12-24T06:55:20.830Z,2.15
2022-12-24T06:58:02.985Z,2.04
2022-12-24T07:00:34.233Z,2.05
2022-12-24T07:03:04.091Z,1.97
2022-12-24T07:05:33.196Z,2.05
2022-12-24T07:08:07.749Z,2.01
2022-12-24T07:10:37.065Z,1.98
2022-12-24T07:13:19.166Z,1.99
2022-12-24T07:16:12.509Z,1.97
2022-12-24T07:18:42.404Z,2.01
2022-12-24T07:21:12.139Z,1.80
2022-12-24T07:23:59.382Z,2.08
2022-12-24T07:26:28.191Z,2.17
2022-12-24T07:28:57.682Z,2.17
2022-12-24T07:31:29.297Z,2.15
2022-12-24T07:33:58.457Z,2.16
2022-12-24T07:36:45.760Z,2.10
2022-12-24T07:39:28.046Z,2.04
2022-12-24T07:42:02.271Z,1.97
2022-12-24T07:44:31.770Z,2.15
2022-12-24T07:47:02.911Z,2.13
2022-12-24T07:49:45.274Z,2.15
2022-12-24T07:52:34.061Z,2.22
2022-12-24T07:55:03.494Z,2.30
2022-12-24T07:57:45.803Z,2.29
2022-12-24T08:00:15.833Z,2.28
2022-12-24T08:02:47.016Z,2.21
2022-12-24T08:05:21.498Z,1.88
2022-12-24T08:08:03.624Z,2.23
2022-12-24T08:10:32.897Z,2.24
2022-12-24T08:13:01.903Z,2.34
2022-12-24T08:15:49.411Z,2.33
2022-12-24T08:18:25.876Z,2.35
2022-12-24T08:21:02.532Z,2.31
2022-12-24T08:23:31.670Z,2.30
2022-12-24T08:26:21.947Z,2.26
2022-12-24T08:28:51.209Z,2.16
2022-12-24T08:31:20.358Z,2.20
2022-12-24T08:33:51.468Z,2.17
2022-12-24T08:36:20.680Z,2.18
2022-12-24T08:38:49.733Z,2.04
2022-12-24T08:41:18.866Z,2.10
2022-12-24T08:43:47.863Z,2.16
2022-12-24T08:46:17.030Z,2.15
2022-12-24T08:48:51.452Z,2.17
2022-12-24T08:51:24.243Z,2.14
2022-12-24T08:53:53.740Z,2.11
2022-12-24T08:56:22.795Z,2.10
2022-12-24T08:58:57.127Z,1.97
2022-12-24T09:01:26.722Z,2.02
2022-12-24T09:04:06.069Z,1.99
2022-12-24T09:06:42.909Z,1.92
2022-12-24T09:09:12.154Z,1.73
2022-12-24T09:11:54.264Z,1.95
2022-12-24T09:14:33.804Z,1.89
2022-12-24T09:17:02.999Z,2.06
2022-12-24T09:19:50.277Z,2.13
2022-12-24T09:22:34.506Z,2.22
2022-12-24T09:25:04.387Z,2.33
2022-12-24T09:27:46.714Z,2.15
2022-12-24T09:30:21.103Z,2.22
2022-12-24T09:32:50.291Z,2.27
2022-12-24T09:35:19.663Z,2.15
2022-12-24T09:38:02.370Z,2.10
2022-12-24T09:40:50.360Z,2.20
2022-12-24T09:43:22.092Z,2.26
2022-12-24T09:45:56.748Z,2.45
2022-12-24T09:48:48.582Z,2.34
2022-12-24T09:51:39.464Z,2.37
2022-12-24T09:54:20.554Z,2.30
2022-12-24T09:56:50.702Z,2.24
2022-12-24T09:59:23.709Z,2.17
2022-12-24T10:01:56.017Z,2.20
2022-12-24T10:04:33.957Z,2.23
2022-12-24T10:07:16.861Z,2.19
2022-12-24T10:09:54.326Z,2.07
2022-12-24T10:12:46.012Z,1.89
2022-12-24T10:15:40.968Z,2.13
2022-12-24T10:18:32.787Z,2.19
2022-12-24T10:21:32.880Z,2.20
2022-12-24T10:24:20.991Z,2.07
2022-12-24T10:26:58.313Z,2.23
2022-12-24T10:29:31.391Z,2.30
2022-12-24T10:32:16.159Z,2.40
2022-12-24T10:37:50.681Z,2.31
2022-12-24T10:40:41.977Z,2.35
2022-12-24T10:43:18.857Z,2.36
2022-12-24T10:46:04.100Z,2.30
2022-12-24T10:48:55.377Z,2.39
2022-12-24T10:51:38.531Z,2.42
2022-12-24T10:54:14.010Z,2.39
2022-12-24T10:56:44.931Z,2.42
2022-12-24T10:59:43.670Z,2.48
2022-12-24T11:02:29.430Z,2.49
2022-12-24T11:05:00.392Z,2.33
2022-12-24T11:07:31.476Z,2.43
2022-12-24T11:10:20.059Z,2.36
2022-12-24T11:13:12.704Z,2.38
2022-12-24T11:15:56.307Z,2.52
2022-12-24T11:18:38.583Z,2.53
2022-12-24T11:21:08.603Z,2.54
2022-12-24T11:23:50.712Z,2.50
2022-12-24T11:26:24.504Z,2.50
2022-12-24T11:29:27.606Z,2.47
2022-12-24T11:32:18.718Z,2.49
2022-12-24T11:34:47.969Z,2.45
2022-12-24T11:37:20.705Z,2.39
2022-12-24T11:39:52.815Z,2.23
2022-12-24T11:42:43.218Z,2.34
2022-12-24T11:45:26.487Z,2.43
2022-12-24T11:48:11.033Z,2.35
2022-12-24T11:50:40.802Z,2.30
2022-12-24T11:53:30.027Z,2.25
2022-12-24T11:56:23.106Z,2.30
2022-12-24T11:58:59.481Z,2.30
2022-12-24T12:01:36.169Z,2.31
2022-12-24T12:04:28.988Z,2.34
2022-12-24T12:07:15.225Z,2.24
2022-12-24T12:09:50.140Z,2.02
2022-12-24T12:12:24.293Z,2.25
2022-12-24T12:14:57.107Z,2.13
2022-12-24T12:17:38.223Z,2.21
2022-12-24T12:20:20.982Z,2.23
2022-12-24T12:23:09.966Z,2.24
2022-12-24T12:25:46.572Z,2.20
2022-12-24T12:28:22.662Z,2.19
2022-12-24T12:31:02.973Z,2.33
2022-12-24T12:33:42.350Z,2.35
2022-12-24T12:36:21.079Z,2.29
2022-12-24T12:38:50.747Z,2.35
2022-12-24T12:41:34.712Z,2.16
2022-12-24T12:44:24.198Z,2.42
2022-12-24T12:54:56.033Z,2.22
2022-12-24T12:57:43.677Z,2.06
2022-12-24T13:00:30.655Z,2.12
2022-12-24T13:03:37.106Z,2.12
2022-12-24T13:06:33.970Z,2.19
2022-12-24T13:09:39.399Z,2.18
2022-12-24T13:13:01.614Z,2.15
2022-12-24T13:15:52.936Z,2.15
2022-12-24T13:18:54.583Z,2.13
2022-12-24T13:21:27.059Z,2.06
2022-12-24T13:24:11.970Z,2.09
2022-12-24T13:26:41.611Z,2.03
2022-12-24T13:29:42.075Z,2.01
2022-12-24T13:32:53.739Z,2.03
2022-12-24T13:35:38.063Z,2.08
2022-12-24T13:38:35.633Z,1.91
2022-12-24T13:41:39.526Z,1.99
2022-12-24T13:44:38.142Z,1.99
2022-12-24T13:47:32.724Z,2.03
2022-12-24T13:50:23.010Z,2.03
2022-12-24T13:52:57.788Z,1.88
2022-12-24T13:55:27.145Z,1.89
2022-12-24T13:58:13.379Z,1.89
2022-12-24T14:00:47.814Z,1.91
2022-12-24T14:03:44.495Z,1.94
2022-12-24T14:06:36.000Z,1.87
2022-12-24T14:09:10.978Z,1.83
2022-12-24T14:12:16.305Z,1.84
2022-12-24T14:14:46.215Z,1.77
2022-12-24T14:17:26.036Z,1.82
2022-12-24T14:20:10.951Z,1.79
2022-12-24T14:22:46.149Z,1.82
2022-12-24T14:25:19.363Z,1.82
2022-12-24T14:27:54.140Z,1.90
2022-12-24T14:30:24.837Z,1.70
2022-12-24T14:32:56.537Z,1.90
2022-12-24T14:35:27.607Z,2.00
2022-12-24T14:38:01.631Z,1.82
2022-12-24T14:40:46.539Z,1.85
2022-12-24T14:43:25.691Z,1.83
2022-12-24T14:46:06.825Z,1.81
2022-12-24T14:48:44.702Z,1.79
2022-12-24T14:51:27.127Z,1.81
2022-12-24T14:54:43.270Z,1.86
2022-12-24T14:57:37.521Z,1.85
2022-12-24T15:00:39.291Z,1.91
2022-12-24T15:03:14.814Z,1.87
2022-12-24T15:06:00.508Z,1.82
2022-12-24T15:08:48.403Z,1.83
2022-12-24T15:11:34.268Z,1.84
2022-12-24T15:14:04.053Z,1.87
2022-12-24T15:16:36.612Z,1.83
2022-12-24T15:19:14.799Z,1.84
2022-12-24T15:21:58.984Z,1.88
2022-12-24T15:24:31.860Z,1.96
2022-12-24T15:27:36.901Z,1.90
2022-12-24T15:30:17.389Z,1.85
2022-12-24T15:32:46.631Z,1.86
2022-12-24T15:35:35.053Z,2.01
2022-12-24T15:38:07.235Z,1.97
2022-12-24T15:40:36.539Z,1.96
2022-12-24T15:43:13.055Z,1.89
2022-12-24T15:45:59.705Z,1.94
2022-12-24T15:48:32.183Z,1.88
2022-12-24T15:51:04.751Z,1.78
2022-12-24T15:53:52.451Z,1.79
2022-12-24T15:56:33.993Z,1.56
2022-12-24T15:59:46.925Z,1.68
2022-12-24T16:02:54.805Z,1.68
2022-12-24T16:05:41.781Z,1.75
2022-12-24T16:08:43.669Z,1.79
2022-12-24T16:11:20.542Z,1.77
2022-12-24T16:14:04.853Z,1.73
2022-12-24T16:16:37.656Z,1.73
2022-12-24T16:19:10.281Z,1.73
2022-12-24T16:21:45.192Z,1.71
2022-12-24T16:24:22.219Z,1.74
2022-12-24T16:26:53.914Z,1.72
2022-12-24T16:29:24.174Z,1.77
2022-12-24T16:31:54.882Z,1.76
2022-12-24T16:34:40.212Z,1.75
2022-12-24T16:37:22.293Z,1.67
2022-12-24T16:40:16.148Z,1.80
2022-12-24T16:43:01.970Z,1.71
2022-12-24T16:45:31.995Z,1.78
2022-12-24T16:48:14.908Z,1.69
2022-12-24T16:50:44.331Z,1.73
2022-12-24T16:53:32.434Z,1.74
2022-12-24T16:56:04.078Z,1.70
2022-12-24T16:58:50.816Z,1.76
2022-12-24T17:01:35.214Z,1.57
2022-12-24T17:04:04.555Z,1.53
2022-12-24T17:06:46.621Z,1.60
2022-12-24T17:09:15.455Z,1.77
2022-12-24T17:11:44.581Z,1.56
2022-12-24T17:14:20.139Z,1.69
2022-12-24T17:17:01.857Z,1.63
2022-12-24T17:19:43.968Z,1.69
2022-12-24T17:22:14.506Z,1.80
2022-12-24T17:24:44.144Z,1.68
2022-12-24T17:27:14.583Z,1.73
2022-12-24T17:30:01.894Z,1.71
2022-12-24T17:32:36.927Z,1.61
2022-12-24T17:35:19.479Z,1.65
2022-12-24T17:38:01.618Z,1.66
2022-12-24T17:40:55.042Z,1.71
2022-12-24T17:43:24.227Z,1.59
2022-12-24T17:45:53.386Z,1.67
2022-12-24T17:48:29.618Z,1.69
2022-12-24T17:51:11.766Z,1.71
2022-12-24T17:53:41.620Z,1.84
2022-12-24T17:56:12.382Z,1.75
2022-12-24T17:58:42.406Z,1.62
2022-12-24T18:01:13.538Z,1.70
2022-12-24T18:03:46.386Z,1.69
2022-12-24T18:06:16.789Z,1.66
2022-12-24T18:08:56.149Z,1.67
2022-12-24T18:11:33.407Z,1.55
2022-12-24T18:14:07.770Z,1.66
2022-12-24T18:16:43.771Z,1.63
2022-12-24T18:19:14.943Z,1.62
2022-12-24T18:21:50.720Z,1.56
2022-12-24T18:24:20.392Z,1.48
2022-12-24T18:26:50.195Z,1.41
2022-12-24T18:29:19.575Z,1.47
2022-12-24T18:31:48.745Z,1.50
2022-12-24T18:34:23.777Z,1.45
2022-12-24T18:36:55.448Z,1.54
2022-12-24T18:39:24.664Z,1.64
2022-12-24T18:41:58.958Z,1.54
2022-12-24T18:44:28.153Z,1.55
2022-12-24T18:46:57.330Z,1.36
2022-12-24T18:49:28.660Z,1.50
2022-12-24T18:51:57.867Z,1.57
2022-12-24T18:54:27.124Z,1.46
2022-12-24T18:57:01.314Z,1.47
2022-12-24T18:59:30.647Z,1.52
2022-12-24T19:01:59.907Z,1.52
2022-12-24T19:04:35.844Z,1.55
2022-12-24T19:07:05.267Z,1.56
2022-12-24T19:09:34.292Z,1.54
2022-12-24T19:12:05.290Z,1.54
2022-12-24T19:14:34.711Z,1.48
2022-12-24T19:17:03.891Z,1.49
2022-12-24T19:19:35.342Z,1.37
2022-12-24T19:22:09.694Z,1.38
2022-12-24T19:24:39.066Z,1.50
2022-12-24T19:27:08.114Z,1.17
2022-12-24T19:29:37.522Z,1.36
2022-12-24T19:32:07.904Z,1.16
2022-12-24T19:34:44.189Z,1.04
2022-12-24T19:37:18.420Z,0.87
2022-12-24T19:39:47.581Z,0.91
2022-12-24T19:42:23.065Z,0.67
2022-12-24T19:44:52.388Z,0.65
2022-12-24T19:47:21.452Z,0.57
2022-12-24T19:49:52.573Z,0.57
2022-12-24T19:52:21.778Z,0.57
2022-12-24T19:54:50.960Z,0.53
2022-12-24T19:59:55.310Z,0.43
2022-12-24T20:02:24.571Z,0.31
2022-12-24T20:04:55.948Z,0.24
2022-12-24T20:07:25.170Z,0.06
2022-12-24T20:09:54.348Z,-0.09
2022-12-24T20:12:23.602Z,-0.06
2022-12-24T20:14:57.245Z,-0.09
2022-12-24T20:17:27.777Z,-0.06
2022-12-24T20:20:01.284Z,-0.13
2022-12-24T20:22:30.825Z,-0.22
2022-12-24T20:24:59.878Z,-0.20
2022-12-24T20:27:29.063Z,-0.23
2022-12-24T20:30:03.078Z,-0.28
2022-12-24T20:32:33.257Z,-0.39
2022-12-24T20:35:11.440Z,-0.39
2022-12-24T20:37:46.939Z,-0.50
2022-12-24T20:40:16.605Z,-0.56
2022-12-24T20:42:48.136Z,-0.63
2022-12-24T20:45:22.470Z,-0.71
2022-12-24T20:47:52.021Z,-0.72
2022-12-24T20:53:05.137Z,-0.75
2022-12-24T20:55:34.185Z,-0.81
2022-12-24T20:58:03.701Z,-0.84
2022-12-24T21:00:32.876Z,-0.79
2022-12-24T21:03:02.471Z,-0.83
2022-12-24T21:05:33.659Z,-0.97
2022-12-24T21:08:03.040Z,-1.02
2022-12-24T21:10:34.484Z,-0.90
2022-12-24T21:13:04.227Z,-0.91
2022-12-24T21:15:35.115Z,-1.32
2022-12-24T21:18:12.265Z,-0.99
2022-12-24T21:20:50.328Z,-0.87
2022-12-24T21:23:24.585Z,-1.00
2022-12-24T21:26:00.495Z,-0.95
2022-12-24T21:28:30.504Z,-0.96
2022-12-24T21:31:01.329Z,-0.97
2022-12-24T21:33:41.502Z,-0.96
2022-12-24T21:36:13.781Z,-1.02
2022-12-24T21:38:43.912Z,-1.14
2022-12-24T21:41:14.616Z,-1.10
2022-12-24T21:46:26.780Z,-1.04
2022-12-24T21:49:09.518Z,-0.96
2022-12-24T21:51:41.642Z,-1.04
2022-12-24T21:54:26.491Z,-1.11
2022-12-24T21:57:15.703Z,-1.11
2022-12-24T21:59:45.453Z,-1.28
2022-12-24T22:02:16.262Z,-1.19
2022-12-24T22:04:46.152Z,-1.39
2022-12-24T22:07:49.214Z,-1.28
2022-12-24T22:10:37.927Z,-1.28
2022-12-24T22:13:09.041Z,-1.29
2022-12-24T22:15:55.800Z,-1.33
2022-12-24T22:18:27.418Z,-1.38
2022-12-24T22:20:57.635Z,-1.39
2022-12-24T22:23:28.750Z,-1.34
2022-12-24T22:25:58.855Z,-1.30
2022-12-24T22:28:30.259Z,-1.17
2022-12-24T22:30:59.704Z,-1.18
2022-12-24T22:33:35.197Z,-1.04
2022-12-24T22:36:11.563Z,-0.94
2022-12-24T22:38:44.679Z,-0.90
2022-12-24T22:41:15.990Z,-0.92
2022-12-24T22:43:45.820Z,-1.02
2022-12-24T22:46:16.168Z,-1.11
2022-12-24T22:48:50.719Z,-0.86
2022-12-24T22:51:24.692Z,-0.95
2022-12-24T22:53:57.171Z,-0.74
2022-12-24T22:56:26.505Z,-0.44
2022-12-24T22:58:55.960Z,-0.39
2022-12-24T23:01:34.592Z,-0.22
2022-12-24T23:04:05.453Z,-0.17
2022-12-24T23:06:45.439Z,-0.11
2022-12-24T23:09:17.703Z,-0.09
2022-12-24T23:11:47.079Z,-0.08
2022-12-24T23:14:34.311Z,0.06
2022-12-24T23:17:03.805Z,0.09
2022-12-24T23:19:33.807Z,-0.01
2022-12-24T23:22:05.440Z,0.17
2022-12-24T23:24:37.566Z,0.25
2022-12-24T23:27:07.652Z,0.15
2022-12-24T23:29:36.838Z,0.27
2022-12-24T23:32:11.002Z,0.28
2022-12-24T23:34:40.172Z,0.44
2022-12-24T23:37:09.282Z,-0.06
2022-12-24T23:39:40.393Z,0.01
2022-12-24T23:42:09.494Z,-0.12
2022-12-24T23:44:43.632Z,-0.41
2022-12-24T23:47:17.034Z,-0.34
2022-12-24T23:49:49.083Z,-0.54
2022-12-24T23:52:23.406Z,-0.26
2022-12-24T23:54:54.609Z,-0.19
2022-12-24T23:57:23.890Z,-0.16
2022-12-24T23:59:58.041Z,-0.26
